Аэропорт
Хомутово (UHSS)

 UHSS / UUS
ЗЦ Хабаровск
Хабаровск (UHHH)
Хабаровск (UHHH)
 46.88870, 142.71800  / 59 ft

 UHSS 111500Z 16001MPS 9999 SCT040CB M15/M17 Q1022 R01/810360 NOSIG RMK QFE765/1021
 UHSS 111100Z 1112/1218 VRB01MPS 9999 BKN030CB TEMPO 1112/1123 3100 -SHSN BECMG 1123/1201 36003MPS
uhss_aip_1605
показать схемы
Название сценария Тип сценария Flight Simulator 9 Flight Simulator X Prepar3D v2 Prepar3D v3 Prepar3D v4 xPlane
uhss-scenery-fs9-1402 бесплатный
uhss-scenery-fsx-1412 бесплатный
uhss-scenery-p3d-1412 бесплатный
uhss-scenery-xpl-1701 бесплатный


2018 © VATRUS division